Time;durP1;ratioP1;P1;durP2;ratioP2;P2;SDS_P1;SDS_P2;PMS_P1;PMS_P2;Temp;Humidity;BMP_temperature;BMP_pressure;BME280_temperature;BME280_humidity;BME280_pressure;Samples;Min_cycle;Max_cycle;Signal;HPM_P1;HPM_P2
2023/08/27 00:00:52;;;;;;;6.82;4.28;;;;;;;23.31;61.83;94420.06;4994018;28;20279;-77
2023/08/27 00:03:19;;;;;;;6.65;4.07;;;;;;;23.32;61.40;94426.38;4993380;28;20209;-76
2023/08/27 00:05:46;;;;;;;5.50;3.58;;;;;;;23.30;61.45;94429.53;4993808;28;20212;-77
2023/08/27 00:08:13;;;;;;;6.97;4.32;;;;;;;23.25;61.65;94410.66;4993293;28;20252;-76
2023/08/27 00:10:40;;;;;;;7.25;4.28;;;;;;;23.26;61.61;94417.75;4993633;28;20213;-76
2023/08/27 00:13:08;;;;;;;7.35;4.55;;;;;;;23.22;61.71;94421.75;4993564;28;20597;-77
2023/08/27 00:15:35;;;;;;;7.00;4.55;;;;;;;23.17;61.76;94420.22;4993042;28;20249;-77
2023/08/27 00:18:03;;;;;;;6.88;4.20;;;;;;;23.14;61.61;94421.06;4993392;28;20252;-77
2023/08/27 00:20:33;;;;;;;10.20;5.00;;;;;;;23.19;61.41;94411.53;4993143;28;20198;-76
2023/08/27 00:23:00;;;;;;;5.22;4.00;;;;;;;23.08;62.06;94408.91;4993898;28;20740;-77
2023/08/27 00:25:27;;;;;;;7.22;3.72;;;;;;;23.03;61.90;94407.38;4993205;28;20228;-76
2023/08/27 00:27:53;;;;;;;5.95;4.07;;;;;;;23.02;61.97;94413.31;4993002;28;20233;-77
2023/08/27 00:30:22;;;;;;;6.63;4.13;;;;;;;22.91;62.67;94415.41;4993248;28;20202;-76
2023/08/27 00:32:48;;;;;;;7.53;4.63;;;;;;;22.65;63.78;94417.63;4993145;28;20202;-76
2023/08/27 00:35:15;;;;;;;6.35;4.47;;;;;;;22.52;64.37;94408.28;4993071;28;20209;-77
2023/08/27 00:37:42;;;;;;;9.38;5.10;;;;;;;22.25;65.83;94410.13;4992975;28;20253;-77
2023/08/27 00:40:09;;;;;;;6.03;4.55;;;;;;;22.21;65.74;94404.63;4993041;28;20561;-76
2023/08/27 00:42:36;;;;;;;7.38;4.20;;;;;;;22.25;65.45;94399.06;4992945;28;20615;-78
2023/08/27 00:45:04;;;;;;;11.05;4.20;;;;;;;22.39;64.85;94393.44;4992829;28;20213;-77
2023/08/27 00:47:35;;;;;;;9.65;5.00;;;;;;;22.38;64.82;94394.63;4991975;28;20396;-76
2023/08/27 00:50:02;;;;;;;7.35;4.10;;;;;;;22.34;65.10;94391.09;4993070;28;20605;-77
2023/08/27 00:52:29;;;;;;;6.68;4.18;;;;;;;22.25;65.79;94399.84;4992413;28;20228;-76
2023/08/27 00:55:00;;;;;;;9.88;4.88;;;;;;;22.15;65.95;94388.88;4992823;28;20629;-76
2023/08/27 00:57:27;;;;;;;5.60;4.18;;;;;;;22.14;66.29;94398.38;4992472;28;20210;-75
2023/08/27 00:59:56;;;;;;;7.43;4.53;;;;;;;22.15;66.11;94402.69;4992458;28;20209;-76
2023/08/27 01:02:23;;;;;;;8.40;4.40;;;;;;;22.04;66.51;94393.72;4992745;28;20212;-76
2023/08/27 01:04:51;;;;;;;5.80;4.28;;;;;;;21.95;66.87;94408.75;4992460;28;20213;-77
2023/08/27 01:07:27;;;;;;;6.43;4.13;;;;;;;21.91;66.94;94396.94;4992576;28;20284;-77
2023/08/27 01:10:03;;;;;;;8.52;4.32;;;;;;;21.96;66.90;94407.53;4992716;28;20208;-76
2023/08/27 01:12:37;;;;;;;6.93;4.28;;;;;;;21.91;67.00;94402.44;4992045;28;20229;-76
2023/08/27 01:15:06;;;;;;;5.60;4.45;;;;;;;21.82;67.18;94398.59;4992145;28;20264;-76
2023/08/27 01:17:36;;;;;;;6.97;4.40;;;;;;;21.76;67.34;94405.72;4992015;28;20190;-76
2023/08/27 01:20:06;;;;;;;7.10;4.20;;;;;;;21.75;67.85;94398.63;4992469;28;20209;-76
2023/08/27 01:22:34;;;;;;;5.35;4.07;;;;;;;21.76;67.89;94406.50;4992261;28;20194;-76
2023/08/27 01:25:01;;;;;;;6.47;4.25;;;;;;;21.76;67.79;94400.19;4992420;28;20206;-76
2023/08/27 01:27:34;;;;;;;7.68;4.68;;;;;;;21.70;68.30;94402.63;4991809;28;20206;-77
2023/08/27 01:30:11;;;;;;;7.68;4.07;;;;;;;21.76;67.61;94400.97;4992026;28;20253;-78
2023/08/27 01:32:40;;;;;;;7.00;4.53;;;;;;;21.74;67.72;94403.34;4991846;28;20610;-76
2023/08/27 01:35:09;;;;;;;6.78;3.95;;;;;;;21.66;68.21;94401.84;4991957;28;20376;-77
2023/08/27 01:37:39;;;;;;;6.15;3.75;;;;;;;21.66;68.02;94412.88;4991717;28;20209;-77
2023/08/27 01:40:08;;;;;;;8.38;4.20;;;;;;;21.61;68.23;94410.53;4992211;28;20218;-77
2023/08/27 01:42:35;;;;;;;7.53;4.43;;;;;;;21.53;68.55;94409.81;4991914;28;20210;-76
2023/08/27 01:45:03;;;;;;;6.32;4.13;;;;;;;21.46;69.06;94414.56;4991923;28;20216;-76
2023/08/27 01:47:31;;;;;;;6.53;4.53;;;;;;;21.42;69.06;94411.06;4991929;28;20666;-76
2023/08/27 01:49:57;;;;;;;6.90;4.72;;;;;;;21.32;69.55;94417.41;4991979;28;20260;-76
2023/08/27 01:52:24;;;;;;;9.82;4.43;;;;;;;21.29;69.83;94416.22;4991556;28;20202;-76
2023/08/27 01:54:52;;;;;;;5.82;4.30;;;;;;;21.15;70.54;94416.28;4991644;28;20212;-76
2023/08/27 01:57:19;;;;;;;7.50;4.55;;;;;;;21.02;71.30;94417.91;4991875;28;20272;-76
2023/08/27 01:59:46;;;;;;;7.90;4.88;;;;;;;20.98;71.29;94414.34;4991268;28;20209;-76
2023/08/27 02:02:12;;;;;;;7.18;4.72;;;;;;;21.04;70.54;94413.56;4991575;28;20205;-76
2023/08/27 02:04:39;;;;;;;8.27;5.18;;;;;;;21.05;71.62;94417.84;4991500;28;20210;-76
2023/08/27 02:07:06;;;;;;;8.60;5.53;;;;;;;21.16;72.08;94410.38;4991606;28;20210;-76
2023/08/27 02:09:33;;;;;;;10.25;6.45;;;;;;;21.01;74.15;94403.34;4991252;28;20272;-76
2023/08/27 02:12:01;;;;;;;13.60;6.97;;;;;;;20.96;75.04;94405.72;4991933;28;20213;-76
2023/08/27 02:14:28;;;;;;;10.07;6.75;;;;;;;20.86;75.44;94404.56;4991411;28;20233;-76
2023/08/27 02:16:56;;;;;;;11.38;6.95;;;;;;;20.85;75.80;94406.53;4991475;28;20206;-76
2023/08/27 02:19:23;;;;;;;11.50;7.75;;;;;;;20.82;76.51;94410.06;4991866;28;20667;-76
2023/08/27 02:21:51;;;;;;;12.77;7.95;;;;;;;20.77;76.71;94406.97;4991674;28;20678;-77
2023/08/27 02:24:18;;;;;;;12.48;6.93;;;;;;;20.78;76.58;94403.00;4991549;28;20210;-76
2023/08/27 02:26:45;;;;;;;13.48;7.57;;;;;;;20.77;77.13;94402.25;4991636;28;20217;-76
2023/08/27 02:29:14;;;;;;;8.93;6.70;;;;;;;20.77;77.03;94398.72;4991540;28;20230;-77
2023/08/27 02:31:40;;;;;;;9.40;6.88;;;;;;;20.71;77.53;94403.03;4991241;28;20217;-76
2023/08/27 02:34:07;;;;;;;13.52;7.43;;;;;;;20.64;77.98;94403.06;4991308;28;20212;-76
2023/08/27 02:36:34;;;;;;;13.55;8.18;;;;;;;20.62;77.81;94410.94;4991425;28;20563;-76
2023/08/27 02:39:01;;;;;;;10.52;7.60;;;;;;;20.60;77.77;94403.06;4991222;28;20206;-77
2023/08/27 02:41:28;;;;;;;12.48;7.75;;;;;;;20.61;78.71;94395.59;4991193;28;20260;-76
2023/08/27 02:43:55;;;;;;;13.63;7.82;;;;;;;20.56;78.91;94403.06;4991337;28;20221;-76
2023/08/27 02:46:23;;;;;;;11.50;7.13;;;;;;;20.53;79.28;94403.84;4991212;28;20228;-76
2023/08/27 02:48:50;;;;;;;11.27;7.60;;;;;;;20.48;79.35;94404.28;4990879;28;20233;-77
2023/08/27 02:51:16;;;;;;;12.05;7.65;;;;;;;20.44;79.13;94400.75;4991510;28;20565;-76
2023/08/27 02:53:43;;;;;;;10.68;7.00;;;;;;;20.45;78.86;94405.06;4991295;28;20229;-76
2023/08/27 02:56:10;;;;;;;11.98;7.03;;;;;;;20.39;79.67;94397.59;4991234;28;20209;-77
2023/08/27 02:58:37;;;;;;;11.43;7.53;;;;;;;20.45;79.42;94401.53;4991045;28;20252;-76
2023/08/27 03:01:04;;;;;;;11.55;6.78;;;;;;;20.41;79.25;94401.53;4991140;28;20634;-76
2023/08/27 03:03:32;;;;;;;10.98;7.53;;;;;;;20.37;79.75;94406.25;4990935;28;20216;-76
2023/08/27 03:05:59;;;;;;;9.45;7.40;;;;;;;20.34;79.66;94407.03;4991022;28;20202;-76
2023/08/27 03:08:25;;;;;;;10.55;7.85;;;;;;;20.26;79.28;94416.44;4990861;28;20253;-77
2023/08/27 03:10:52;;;;;;;13.23;6.97;;;;;;;20.25;79.45;94414.88;4992668;28;20217;-76
2023/08/27 03:13:19;;;;;;;10.73;7.30;;;;;;;20.29;79.53;94414.88;4994451;28;20233;-76
2023/08/27 03:15:46;;;;;;;12.57;7.32;;;;;;;20.30;78.92;94408.97;4994181;28;20249;-76
2023/08/27 03:18:13;;;;;;;11.88;7.55;;;;;;;20.27;79.55;94406.22;4994711;28;20205;-76
2023/08/27 03:20:41;;;;;;;13.30;7.55;;;;;;;20.21;79.97;94408.59;4994065;28;20209;-76
2023/08/27 03:23:08;;;;;;;11.88;7.63;;;;;;;20.04;81.54;94403.88;4994787;28;20208;-76
2023/08/27 03:25:34;;;;;;;11.68;8.00;;;;;;;20.03;81.71;94407.81;4994031;28;20209;-76
2023/08/27 03:28:01;;;;;;;13.88;7.70;;;;;;;20.04;81.39;94403.88;4994371;28;20213;-77
2023/08/27 03:30:28;;;;;;;9.55;7.07;;;;;;;20.10;81.17;94414.09;4994076;28;20209;-76
2023/08/27 03:32:55;;;;;;;12.68;7.80;;;;;;;20.14;80.82;94411.34;4994637;28;20205;-76
2023/08/27 03:35:21;;;;;;;12.55;8.07;;;;;;;20.15;80.59;94415.66;4994502;28;20206;-76
2023/08/27 03:37:49;;;;;;;13.70;8.35;;;;;;;20.16;81.19;94414.50;4993914;28;20721;-76
2023/08/27 03:40:16;;;;;;;11.57;7.70;;;;;;;20.13;80.73;94412.53;4994079;28;20198;-77
2023/08/27 03:42:43;;;;;;;16.15;8.35;;;;;;;20.20;80.67;94412.53;4994102;28;20263;-77
2023/08/27 03:45:11;;;;;;;11.02;7.97;;;;;;;20.16;81.05;94412.53;4994397;28;20209;-76
2023/08/27 03:47:37;;;;;;;12.43;8.50;;;;;;;20.23;80.60;94420.75;4993910;28;20202;-76
2023/08/27 03:50:05;;;;;;;10.52;7.32;;;;;;;20.24;80.99;94422.34;4993857;28;20230;-76
2023/08/27 03:52:34;;;;;;;25.25;9.20;;;;;;;20.22;80.98;94423.94;4993666;28;20296;-76
2023/08/27 03:55:02;;;;;;;12.05;7.55;;;;;;;20.28;80.69;94422.34;4994079;28;20288;-77
2023/08/27 03:57:29;;;;;;;11.43;7.60;;;;;;;20.32;80.39;94419.59;4993644;28;20221;-76
2023/08/27 03:59:56;;;;;;;14.93;8.10;;;;;;;20.38;80.38;94424.31;4993918;28;20729;-76
2023/08/27 04:02:23;;;;;;;11.55;7.15;;;;;;;20.55;80.07;94420.75;4993686;28;20648;-76
2023/08/27 04:04:50;;;;;;;11.32;7.38;;;;;;;20.94;78.97;94428.13;4993868;28;20641;-76
2023/08/27 04:07:17;;;;;;;12.75;7.22;;;;;;;21.27;77.88;94430.41;4993602;28;20202;-77
2023/08/27 04:09:43;;;;;;;19.92;8.60;;;;;;;21.83;75.89;94428.53;4993467;28;20225;-77
2023/08/27 04:12:11;;;;;;;9.45;7.00;;;;;;;22.42;73.36;94431.22;4993454;28;20210;-77
2023/08/27 04:14:38;;;;;;;16.80;8.35;;;;;;;22.86;71.40;94427.69;4993261;28;20578;-76
2023/08/27 04:17:05;;;;;;;11.07;7.18;;;;;;;23.40;69.53;94428.63;4993490;28;20194;-76
2023/08/27 04:19:32;;;;;;;12.43;7.90;;;;;;;23.89;67.83;94428.41;4993039;28;20249;-76
2023/08/27 04:21:58;;;;;;;12.45;7.55;;;;;;;24.36;65.76;94426.50;4993356;28;20197;-77
2023/08/27 04:24:25;;;;;;;10.88;7.68;;;;;;;24.86;64.20;94431.97;4993344;28;20217;-77
2023/08/27 04:26:52;;;;;;;11.77;7.18;;;;;;;25.42;62.05;94429.31;4993030;28;20209;-76
2023/08/27 04:29:21;;;;;;;10.52;7.55;;;;;;;25.93;60.70;94430.63;4993462;28;20563;-76
2023/08/27 04:31:48;;;;;;;12.32;6.80;;;;;;;26.42;58.85;94425.13;4992969;28;20220;-77
2023/08/27 04:34:14;;;;;;;10.25;7.60;;;;;;;26.72;57.78;94424.75;4993087;28;20242;-76
2023/08/27 04:36:41;;;;;;;11.55;7.97;;;;;;;27.16;56.35;94414.09;4992927;28;20218;-77
2023/08/27 04:39:08;;;;;;;11.95;8.50;;;;;;;27.69;55.26;94409.81;4992803;28;20201;-77
2023/08/27 04:41:35;;;;;;;10.18;8.45;;;;;;;28.08;54.32;94405.03;4993163;28;20233;-77
2023/08/27 04:44:02;;;;;;;15.40;8.68;;;;;;;28.54;52.33;94417.53;4993336;28;20234;-77
2023/08/27 04:46:30;;;;;;;12.32;8.68;;;;;;;28.96;51.56;94409.75;4993220;28;20551;-77
2023/08/27 04:48:57;;;;;;;14.20;8.45;;;;;;;29.30;50.48;94406.13;4993072;28;20654;-77
2023/08/27 04:51:26;;;;;;;11.02;9.10;;;;;;;29.61;48.78;94423.75;4992918;28;20209;-77
2023/08/27 04:53:53;;;;;;;11.88;8.85;;;;;;;29.76;48.19;94420.44;4992602;28;20202;-77
2023/08/27 04:56:20;;;;;;;10.77;8.50;;;;;;;30.05;47.58;94426.53;4992823;28;20256;-77
2023/08/27 04:58:47;;;;;;;12.35;9.00;;;;;;;29.14;49.44;94423.06;4992470;28;20260;-77
2023/08/27 05:01:14;;;;;;;13.38;9.13;;;;;;;29.88;47.91;94419.56;4992466;28;20205;-77
2023/08/27 05:03:42;;;;;;;12.85;9.07;;;;;;;30.71;46.18;94424.28;4992318;28;20221;-77
2023/08/27 05:06:09;;;;;;;14.00;9.57;;;;;;;30.92;45.26;94417.00;4992904;28;20213;-77
2023/08/27 05:08:35;;;;;;;12.32;8.93;;;;;;;31.22;44.77;94434.94;4992354;28;20224;-76
2023/08/27 05:11:02;;;;;;;13.15;8.90;;;;;;;31.47;44.40;94426.22;4992510;28;20212;-77
2023/08/27 05:13:29;;;;;;;9.73;8.18;;;;;;;31.50;43.83;94428.09;4992242;28;20226;-77
2023/08/27 05:15:56;;;;;;;11.95;8.63;;;;;;;31.69;43.17;94437.31;4991958;28;20681;-77
2023/08/27 05:18:23;;;;;;;9.23;8.25;;;;;;;31.76;43.54;94429.34;4992419;28;20209;-77
2023/08/27 05:20:51;;;;;;;12.05;8.57;;;;;;;31.97;42.65;94426.81;4992024;28;20198;-77
2023/08/27 05:23:17;;;;;;;9.40;8.13;;;;;;;32.55;41.19;94420.06;4992452;28;20278;-77
2023/08/27 05:25:45;;;;;;;11.68;8.68;;;;;;;32.69;40.72;94419.34;4992083;28;20305;-77
2023/08/27 05:28:11;;;;;;;9.65;7.82;;;;;;;33.24;39.67;94424.63;4992339;28;20201;-77
2023/08/27 05:30:38;;;;;;;8.98;7.68;;;;;;;33.05;39.74;94424.78;4992246;28;20644;-77
2023/08/27 05:33:05;;;;;;;11.27;8.23;;;;;;;32.91;40.14;94428.31;4991898;28;20664;-77
2023/08/27 05:35:33;;;;;;;10.23;8.40;;;;;;;32.30;40.65;94427.66;4992352;28;20212;-77
2023/08/27 05:38:01;;;;;;;9.85;8.02;;;;;;;33.18;40.01;94432.97;4992317;28;20209;-77
2023/08/27 05:40:28;;;;;;;8.82;7.70;;;;;;;33.33;39.04;94436.63;4991923;28;20198;-77
2023/08/27 05:42:55;;;;;;;9.30;7.72;;;;;;;32.35;40.70;94438.22;4991648;28;20217;-77
2023/08/27 05:45:22;;;;;;;10.63;8.10;;;;;;;32.80;40.01;94439.28;4992059;28;20274;-77
2023/08/27 05:47:49;;;;;;;9.30;6.72;;;;;;;33.02;39.88;94436.97;4991853;28;20209;-77
2023/08/27 05:50:16;;;;;;;8.43;7.28;;;;;;;32.99;39.68;94432.28;4991824;28;20229;-77
2023/08/27 05:52:42;;;;;;;9.50;7.93;;;;;;;31.77;41.62;94433.69;4991926;28;20680;-77
2023/08/27 05:55:11;;;;;;;10.85;7.28;;;;;;;33.33;39.25;94433.03;4991979;28;20224;-77
2023/08/27 05:57:37;;;;;;;10.30;7.70;;;;;;;33.94;37.76;94425.00;4991901;28;20576;-77
2023/08/27 06:00:06;;;;;;;10.43;7.88;;;;;;;34.59;36.58;94418.16;4991691;28;20205;-77
2023/08/27 06:02:33;;;;;;;12.73;8.50;;;;;;;34.58;36.47;94417.38;4991514;28;20305;-76
2023/08/27 06:05:00;;;;;;;10.77;8.15;;;;;;;35.09;36.04;94416.06;4991850;28;20300;-78
2023/08/27 06:07:27;;;;;;;9.27;8.25;;;;;;;35.31;35.95;94421.22;4991620;28;20206;-77
2023/08/27 06:09:53;;;;;;;13.77;8.43;;;;;;;33.61;38.10;94425.91;4991651;28;20587;-77
2023/08/27 06:12:21;;;;;;;12.20;8.90;;;;;;;33.84;37.52;94419.47;4991956;28;20221;-77
2023/08/27 06:14:48;;;;;;;10.98;9.18;;;;;;;34.29;37.24;94417.44;4991204;28;20244;-77
2023/08/27 06:17:16;;;;;;;10.70;9.38;;;;;;;34.81;36.63;94417.72;4974716;28;20190;-77
2023/08/27 06:19:42;;;;;;;11.38;9.02;;;;;;;35.75;35.60;94414.56;4991625;28;20202;-76
2023/08/27 06:22:09;;;;;;;9.68;7.93;;;;;;;35.85;35.35;94408.25;4992069;28;20210;-77
2023/08/27 06:24:36;;;;;;;14.82;8.95;;;;;;;34.70;36.47;94411.91;4991312;28;20618;-76
2023/08/27 06:27:03;;;;;;;9.23;8.10;;;;;;;34.57;36.75;94415.84;4991937;28;20620;-77
2023/08/27 06:29:32;;;;;;;10.43;8.38;;;;;;;36.16;34.05;94415.22;4991259;28;20324;-77
2023/08/27 06:31:58;;;;;;;12.73;8.23;;;;;;;36.30;34.22;94405.88;4991287;28;20217;-76
2023/08/27 06:34:25;;;;;;;10.95;7.65;;;;;;;35.01;35.76;94409.28;4991184;28;20216;-77
2023/08/27 06:36:52;;;;;;;12.07;7.88;;;;;;;34.26;37.47;94412.75;4991337;28;20256;-76
2023/08/27 06:39:19;;;;;;;10.65;7.28;;;;;;;35.46;35.58;94409.88;4991230;28;20219;-77
2023/08/27 06:41:46;;;;;;;9.23;7.40;;;;;;;35.42;35.09;94409.31;4991357;28;20206;-76
2023/08/27 06:44:13;;;;;;;9.50;7.45;;;;;;;35.00;35.10;94404.91;4991727;28;20794;-76
2023/08/27 06:46:41;;;;;;;11.30;7.95;;;;;;;36.16;34.00;94398.28;4994122;28;20209;-77
2023/08/27 06:49:08;;;;;;;7.75;6.65;;;;;;;36.19;34.08;94397.28;4994740;28;20206;-77
2023/08/27 06:51:34;;;;;;;8.15;6.90;;;;;;;35.89;34.05;94408.81;4995423;28;20205;-77
2023/08/27 06:54:01;;;;;;;9.82;6.55;;;;;;;34.91;35.33;94405.84;4994749;28;20202;-77
2023/08/27 06:56:28;;;;;;;11.63;7.85;;;;;;;35.33;34.50;94401.78;4995059;28;20284;-77
2023/08/27 06:58:55;;;;;;;9.25;6.85;;;;;;;36.07;33.84;94402.06;4994651;28;20221;-76
2023/08/27 07:01:23;;;;;;;8.80;7.15;;;;;;;36.39;33.07;94396.44;4995277;28;20563;-77
2023/08/27 07:03:51;;;;;;;7.82;6.20;;;;;;;34.78;35.15;94413.06;4994563;28;20325;-76
2023/08/27 07:06:19;;;;;;;9.55;7.07;;;;;;;34.85;34.77;94413.44;4994857;28;20221;-77
2023/08/27 07:08:46;;;;;;;8.02;6.38;;;;;;;33.59;36.89;94411.56;4994549;28;20561;-76
2023/08/27 07:11:13;;;;;;;9.38;6.72;;;;;;;34.12;35.67;94402.31;4994934;28;20702;-77
2023/08/27 07:13:40;;;;;;;10.82;6.78;;;;;;;33.99;36.18;94405.41;4994457;28;20229;-76
2023/08/27 07:16:06;;;;;;;10.73;6.90;;;;;;;35.02;35.21;94410.84;4994620;28;20238;-76
2023/08/27 07:18:33;;;;;;;9.85;6.75;;;;;;;34.87;34.62;94415.75;4994252;28;20205;-78
2023/08/27 07:21:01;;;;;;;7.93;6.63;;;;;;;32.69;37.96;94419.34;4994210;28;20252;-77
2023/08/27 07:23:28;;;;;;;12.25;7.07;;;;;;;32.47;39.33;94420.41;4994720;28;20579;-77
2023/08/27 07:25:55;;;;;;;8.57;6.47;;;;;;;33.41;37.22;94414.53;4994569;28;20555;-76
2023/08/27 07:28:22;;;;;;;8.68;6.35;;;;;;;34.03;36.99;94413.66;4994560;28;20615;-77
2023/08/27 07:30:50;;;;;;;9.27;6.60;;;;;;;34.61;35.84;94415.63;4994622;28;20332;-76
2023/08/27 07:33:17;;;;;;;9.18;6.30;;;;;;;34.30;35.60;94419.00;4994276;28;20632;-77
2023/08/27 07:35:44;;;;;;;8.52;6.00;;;;;;;33.57;36.88;94419.72;4993958;28;20205;-77
2023/08/27 07:38:12;;;;;;;7.28;6.10;;;;;;;33.31;37.69;94422.28;4994227;28;20205;-76
2023/08/27 07:40:39;;;;;;;7.80;6.32;;;;;;;31.92;39.66;94425.41;4993966;28;20202;-76
2023/08/27 07:43:06;;;;;;;8.88;5.78;;;;;;;32.45;39.65;94419.31;4994398;28;20217;-77
2023/08/27 07:45:33;;;;;;;8.60;5.93;;;;;;;32.32;39.30;94405.53;4994129;28;20201;-78
2023/08/27 07:48:00;;;;;;;9.77;6.03;;;;;;;31.60;40.84;94418.44;4994152;28;20210;-77
2023/08/27 07:50:28;;;;;;;8.48;6.43;;;;;;;31.48;40.98;94408.19;4993699;28;20225;-78
2023/08/27 07:52:55;;;;;;;10.15;6.07;;;;;;;31.47;41.06;94412.22;4993751;28;20206;-77
2023/08/27 07:55:24;;;;;;;9.25;6.28;;;;;;;31.65;40.99;94406.63;4994149;28;20574;-77
2023/08/27 07:57:51;;;;;;;8.27;6.13;;;;;;;31.40;41.19;94404.16;4993585;28;20213;-77
2023/08/27 08:00:20;;;;;;;7.13;5.95;;;;;;;31.59;40.77;94397.28;4993830;28;20205;-77
2023/08/27 08:02:47;;;;;;;11.48;6.65;;;;;;;30.69;42.42;94410.00;4993572;28;20264;-77
2023/08/27 08:05:14;;;;;;;10.82;6.30;;;;;;;31.29;41.68;94401.06;4993887;28;20560;-78
2023/08/27 08:07:42;;;;;;;8.18;5.65;;;;;;;31.57;40.31;94387.81;4993527;28;20210;-76
2023/08/27 08:10:09;;;;;;;9.30;6.05;;;;;;;31.79;40.51;94388.41;4993210;28;20237;-77
2023/08/27 08:12:37;;;;;;;8.15;6.45;;;;;;;31.89;39.69;94386.34;4993617;28;20241;-77
2023/08/27 08:15:05;;;;;;;7.72;6.20;;;;;;;31.37;41.02;94385.50;4992982;28;20249;-78
2023/08/27 08:17:32;;;;;;;10.15;6.47;;;;;;;31.84;40.19;94384.19;4993567;28;20213;-78
2023/08/27 08:19:58;;;;;;;8.90;6.43;;;;;;;31.89;40.34;94380.72;4992902;28;20213;-77
2023/08/27 08:22:25;;;;;;;9.60;6.13;;;;;;;31.96;39.52;94369.19;4993849;28;20205;-77
2023/08/27 08:24:52;;;;;;;9.43;5.65;;;;;;;31.68;40.09;94376.91;4993099;28;20209;-77
2023/08/27 08:27:19;;;;;;;9.07;6.70;;;;;;;31.33;40.99;94379.25;4993355;28;20220;-77
2023/08/27 08:29:47;;;;;;;8.57;6.25;;;;;;;31.36;41.05;94367.13;4992839;28;20213;-76
2023/08/27 08:32:14;;;;;;;9.07;6.18;;;;;;;31.06;41.41;94372.41;4993293;28;20210;-77
2023/08/27 08:34:41;;;;;;;7.00;5.93;;;;;;;31.47;40.37;94367.41;4993247;28;20276;-77
2023/08/27 08:37:08;;;;;;;8.45;5.47;;;;;;;31.90;38.52;94359.88;4993449;28;20240;-77
2023/08/27 08:39:35;;;;;;;8.35;5.53;;;;;;;32.02;38.66;94361.69;4992791;28;20205;-77
2023/08/27 08:42:10;;;;;;;7.47;5.50;;;;;;;32.23;38.13;94355.09;4992954;28;20256;-78
2023/08/27 08:44:44;;;;;;;6.55;5.10;;;;;;;32.01;37.77;94349.69;4993029;28;20244;-77
2023/08/27 08:47:14;;;;;;;6.93;5.30;;;;;;;32.53;37.58;94349.66;4993101;28;20197;-77
2023/08/27 08:49:43;;;;;;;6.75;5.25;;;;;;;32.68;36.64;94344.84;4993521;28;20724;-77
2023/08/27 08:52:17;;;;;;;5.82;5.18;;;;;;;32.32;37.64;94357.84;4992795;28;20209;-77
2023/08/27 08:54:50;;;;;;;7.43;5.47;;;;;;;31.91;37.58;94350.22;4992855;28;20202;-76
2023/08/27 08:57:17;;;;;;;9.60;5.80;;;;;;;32.32;37.45;94352.25;4993223;28;20261;-78
2023/08/27 08:59:45;;;;;;;9.38;5.30;;;;;;;32.09;38.07;94344.53;4992369;28;20209;-77
2023/08/27 09:02:15;;;;;;;7.07;5.38;;;;;;;32.38;37.33;94341.94;4992998;28;20311;-78
2023/08/27 09:04:43;;;;;;;9.13;5.32;;;;;;;33.09;35.95;94335.50;4993099;28;20217;-78
2023/08/27 09:07:11;;;;;;;8.20;5.40;;;;;;;32.57;36.81;94327.78;4992943;28;20647;-78
2023/08/27 09:09:39;;;;;;;7.03;5.78;;;;;;;32.92;36.32;94326.00;4992012;28;20248;-78
2023/08/27 09:12:08;;;;;;;9.25;5.15;;;;;;;32.69;36.75;94323.94;4992438;28;20225;-77
2023/08/27 09:14:36;;;;;;;6.55;5.30;;;;;;;32.70;36.50;94326.28;4992642;28;20301;-78
2023/08/27 09:17:05;;;;;;;7.22;5.10;;;;;;;32.69;36.81;94321.16;4992260;28;20244;-78
2023/08/27 09:19:33;;;;;;;6.95;5.63;;;;;;;32.62;36.36;94327.13;4992371;28;20210;-77
2023/08/27 09:22:00;;;;;;;6.53;5.35;;;;;;;32.63;36.67;94325.88;4992141;28;20260;-77
2023/08/27 09:24:27;;;;;;;8.90;4.78;;;;;;;33.12;35.65;94317.72;4992544;28;20205;-78
2023/08/27 09:26:53;;;;;;;7.72;4.97;;;;;;;33.76;34.46;94314.28;4992355;28;20208;-77
2023/08/27 09:29:22;;;;;;;7.07;4.68;;;;;;;33.58;34.77;94314.50;4992360;28;20212;-79
2023/08/27 09:31:49;;;;;;;6.63;4.93;;;;;;;33.66;35.08;94304.41;4992046;28;20233;-77
2023/08/27 09:34:16;;;;;;;7.55;5.30;;;;;;;33.18;34.81;94309.41;4992398;28;20643;-76
2023/08/27 09:36:44;;;;;;;9.10;5.25;;;;;;;33.31;35.22;94312.75;4992135;28;20607;-76
2023/08/27 09:39:12;;;;;;;6.72;4.65;;;;;;;33.18;34.89;94309.41;4992157;28;20205;-77
2023/08/27 09:41:41;;;;;;;5.68;5.07;;;;;;;33.11;34.80;94304.16;4991954;28;20206;-76
2023/08/27 09:44:08;;;;;;;7.10;5.28;;;;;;;33.37;34.87;94304.41;4992215;28;20666;-78
2023/08/27 09:46:35;;;;;;;5.95;5.22;;;;;;;33.74;34.62;94294.31;4992334;28;20206;-78
2023/08/27 09:49:05;;;;;;;7.65;5.13;;;;;;;33.60;34.81;94295.13;4991842;28;20220;-78
2023/08/27 09:51:33;;;;;;;7.75;5.45;;;;;;;33.40;34.76;94297.81;4991902;28;20316;-77
2023/08/27 09:54:01;;;;;;;7.65;5.22;;;;;;;33.30;35.30;94287.94;4991785;28;20221;-79
2023/08/27 09:56:29;;;;;;;10.65;5.60;;;;;;;33.40;34.90;94280.97;4991976;28;20209;-78
2023/08/27 09:58:56;;;;;;;7.28;5.50;;;;;;;33.30;34.78;94276.72;4991623;28;20737;-78
2023/08/27 10:01:25;;;;;;;6.50;5.70;;;;;;;33.29;34.93;94289.19;4992025;28;20630;-79
2023/08/27 10:03:53;;;;;;;5.95;4.93;;;;;;;33.59;34.58;94287.16;4991419;28;20324;-77
2023/08/27 10:06:20;;;;;;;7.03;4.93;;;;;;;33.42;34.39;94289.69;4991998;28;20590;-77
2023/08/27 10:08:50;;;;;;;10.15;5.13;;;;;;;33.27;35.16;94277.66;4973812;28;20201;-77
2023/08/27 10:11:18;;;;;;;9.90;5.65;;;;;;;33.21;34.70;94285.97;4991515;28;20237;-78
2023/08/27 10:13:45;;;;;;;6.30;5.00;;;;;;;33.60;34.17;94283.09;4991669;28;20384;-78
2023/08/27 10:16:13;;;;;;;11.43;5.72;;;;;;;33.49;35.13;94280.84;4991614;28;20273;-77
2023/08/27 10:18:41;;;;;;;6.68;4.90;;;;;;;33.19;35.29;94278.03;4991677;28;20221;-78
2023/08/27 10:21:10;;;;;;;13.70;5.68;;;;;;;33.10;35.31;94274.53;4995318;28;20226;-78
2023/08/27 10:23:40;;;;;;;9.98;5.55;;;;;;;33.03;35.15;94263.69;4995493;28;20220;-77
2023/08/27 10:26:07;;;;;;;8.52;4.82;;;;;;;32.64;35.97;94271.31;4995482;28;20194;-78
2023/08/27 10:28:36;;;;;;;8.55;4.97;;;;;;;32.13;36.39;94266.63;4995747;28;20578;-76
2023/08/27 10:31:03;;;;;;;6.90;4.97;;;;;;;32.59;35.54;94266.38;4995073;28;20225;-77
2023/08/27 10:33:30;;;;;;;8.63;5.20;;;;;;;32.73;35.44;94248.81;4995701;28;20213;-77
2023/08/27 10:36:04;;;;;;;7.45;5.00;;;;;;;32.87;35.03;94250.09;4995347;28;20246;-78
2023/08/27 10:38:34;;;;;;;7.75;4.55;;;;;;;33.03;34.25;94255.25;4995983;28;20197;-78
2023/08/27 10:41:02;;;;;;;6.97;4.70;;;;;;;32.87;34.65;94253.69;4995707;28;20197;-78
2023/08/27 10:43:35;;;;;;;7.82;4.78;;;;;;;33.02;34.74;94257.28;4995949;28;20205;-76
2023/08/27 10:46:11;;;;;;;8.10;4.68;;;;;;;33.25;34.29;94247.25;4995387;28;20252;-78
2023/08/27 10:48:39;;;;;;;8.18;4.90;;;;;;;33.53;34.06;94240.06;4995261;28;20205;-77
2023/08/27 10:51:11;;;;;;;7.85;5.20;;;;;;;33.37;33.93;94240.56;4994908;28;20348;-78
2023/08/27 10:53:53;;;;;;;6.60;5.15;;;;;;;33.19;34.52;94238.72;4995005;28;20625;-77
2023/08/27 10:56:28;;;;;;;7.72;5.00;;;;;;;32.80;33.09;94240.03;4994979;28;20194;-77
2023/08/27 10:58:59;;;;;;;10.43;4.60;;;;;;;32.85;33.43;94219.72;4994439;28;20555;-77
2023/08/27 11:01:26;;;;;;;8.48;5.55;;;;;;;32.84;33.58;94235.00;4994917;28;20289;-77
2023/08/27 11:03:57;;;;;;;10.25;5.10;;;;;;;32.77;34.39;94224.16;4994527;28;20232;-76
2023/08/27 11:06:47;;;;;;;11.15;6.57;;;;;;;33.07;33.93;94224.97;4994745;28;20292;-78
2023/08/27 11:09:15;;;;;;;12.10;6.85;;;;;;;33.15;33.60;94221.28;4994724;28;20638;-77
2023/08/27 11:11:45;;;;;;;7.97;4.53;;;;;;;33.49;33.01;94233.09;4994731;28;20225;-77
2023/08/27 11:14:15;;;;;;;6.93;4.90;;;;;;;33.83;32.39;94220.38;4994669;28;20631;-77
2023/08/27 11:16:47;;;;;;;8.45;4.60;;;;;;;33.70;32.78;94219.91;4994555;28;20312;-77
2023/08/27 11:19:14;;;;;;;7.05;4.65;;;;;;;33.57;32.44;94216.63;4994885;28;20210;-77
2023/08/27 11:21:43;;;;;;;6.93;4.97;;;;;;;33.50;33.09;94206.56;4994446;28;20194;-77
2023/08/27 11:24:21;;;;;;;7.55;4.65;;;;;;;33.70;32.08;94205.84;4994018;28;20214;-77
2023/08/27 11:26:49;;;;;;;6.82;4.40;;;;;;;33.93;32.14;94192.91;4994641;28;20209;-77
2023/08/27 11:29:18;;;;;;;8.27;4.38;;;;;;;33.82;32.49;94205.56;4994334;28;20205;-77
2023/08/27 11:31:47;;;;;;;5.88;4.53;;;;;;;33.73;32.48;94200.03;4993476;28;20237;-77